createdAt,value
2023-04-28T00:02:06.078Z,100927.16
2023-04-28T00:04:34.226Z,100920.09
2023-04-28T00:07:03.802Z,100921.72
2023-04-28T00:09:31.696Z,100902.84
2023-04-28T00:12:00.172Z,100918.66
2023-04-28T00:14:28.249Z,100929.19
2023-04-28T00:16:57.854Z,100929.09
2023-04-28T00:19:25.964Z,100928.31
2023-04-28T00:21:53.878Z,100920.44
2023-04-28T00:24:23.108Z,100927.22
2023-04-28T00:26:51.264Z,100929.72
2023-04-28T00:29:19.481Z,100916.13
2023-04-28T00:31:47.383Z,100915.94
2023-04-28T00:34:15.759Z,100930.88
2023-04-28T00:36:43.830Z,100931.38
2023-04-28T00:39:11.705Z,100933.78
2023-04-28T00:41:41.044Z,100940.59
2023-04-28T00:44:08.979Z,100945.59
2023-04-28T00:46:36.841Z,100944.59
2023-04-28T00:49:06.166Z,100944.41
2023-04-28T00:51:34.482Z,100949.41
2023-04-28T00:54:02.399Z,100899.25
2023-04-28T00:56:31.332Z,100930.44
2023-04-28T00:59:00.730Z,100953.31
2023-04-28T01:01:28.742Z,100946.47
2023-04-28T01:03:57.139Z,100956.50
2023-04-28T01:06:25.273Z,100949.06
2023-04-28T01:08:53.436Z,100966.56
2023-04-28T01:11:21.482Z,100956.13
2023-04-28T01:13:49.369Z,100938.13
2023-04-28T01:16:18.687Z,100937.25
2023-04-28T01:18:48.983Z,100880.72
2023-04-28T01:21:29.039Z,100952.84
2023-04-28T01:23:58.491Z,100778.44
2023-04-28T01:26:26.475Z,100950.97
2023-04-28T01:28:54.663Z,100940.34
2023-04-28T01:31:22.923Z,100948.50
2023-04-28T01:33:50.797Z,100944.72
2023-04-28T01:36:18.629Z,100937.38
2023-04-28T01:38:46.658Z,100878.16
2023-04-28T01:41:15.924Z,100958.38
2023-04-28T01:43:44.378Z,100965.41
2023-04-28T01:46:12.776Z,100883.22
2023-04-28T01:48:40.590Z,100965.22
2023-04-28T01:51:08.551Z,100968.59
2023-04-28T01:53:36.606Z,100966.81
2023-04-28T01:56:04.560Z,100963.34
2023-04-28T01:58:33.940Z,100964.94
2023-04-28T02:01:01.959Z,100943.47
2023-04-28T02:03:29.971Z,100964.84
2023-04-28T02:05:57.957Z,100967.41
2023-04-28T02:08:25.891Z,100945.25
2023-04-28T02:10:53.803Z,100972.59
2023-04-28T02:13:21.731Z,100954.19
2023-04-28T02:15:51.181Z,100974.38
2023-04-28T02:18:19.048Z,100935.00
2023-04-28T02:20:46.977Z,100970.69
2023-04-28T02:23:14.984Z,100974.09
2023-04-28T02:25:42.819Z,100978.34
2023-04-28T02:28:10.724Z,100962.16
2023-04-28T02:30:38.978Z,100965.44
2023-04-28T02:33:08.247Z,100982.34
2023-04-28T02:35:36.197Z,100984.13
2023-04-28T02:38:04.221Z,100988.41
2023-04-28T02:40:32.078Z,100964.53
2023-04-28T02:43:00.000Z,100969.91
2023-04-28T02:45:28.035Z,100985.03
2023-04-28T02:47:55.951Z,100983.34
2023-04-28T02:50:25.309Z,100996.16
2023-04-28T02:52:53.255Z,100989.59
2023-04-28T02:55:24.315Z,100979.25
2023-04-28T02:57:52.597Z,100969.59
2023-04-28T03:00:21.000Z,100990.88
2023-04-28T03:02:48.877Z,100989.09
2023-04-28T03:05:16.947Z,100990.09
2023-04-28T03:07:46.369Z,101006.88
2023-04-28T03:10:14.261Z,100996.84
2023-04-28T03:12:42.181Z,101003.09
2023-04-28T03:15:12.742Z,101000.81
2023-04-28T03:17:43.242Z,101002.88
2023-04-28T03:20:13.165Z,100987.88
2023-04-28T03:22:41.086Z,101005.84
2023-04-28T03:25:11.287Z,100984.56
2023-04-28T03:27:39.783Z,101009.81
2023-04-28T03:30:08.767Z,100997.16
2023-04-28T03:32:36.696Z,101006.13
2023-04-28T03:35:05.053Z,100989.81
2023-04-28T03:37:32.956Z,101006.28
2023-04-28T03:40:00.782Z,101009.84
2023-04-28T03:42:30.123Z,101010.03
2023-04-28T03:44:57.941Z,101011.91
2023-04-28T03:47:25.800Z,101014.78
2023-04-28T03:49:53.828Z,101000.88
2023-04-28T03:52:21.757Z,101016.97
2023-04-28T03:54:49.570Z,100993.63
2023-04-28T03:57:22.817Z,101022.53
2023-04-28T03:59:55.138Z,101018.03
2023-04-28T04:02:23.219Z,101003.31
2023-04-28T04:04:51.822Z,101004.41
2023-04-28T04:07:20.420Z,101034.63
2023-04-28T04:09:48.381Z,101016.03
2023-04-28T04:12:16.455Z,101031.41
2023-04-28T04:14:44.529Z,100898.50
2023-04-28T04:17:13.826Z,101032.78
2023-04-28T04:19:41.941Z,101031.97
2023-04-28T04:22:10.340Z,101029.47
2023-04-28T04:24:38.356Z,101027.88
2023-04-28T04:27:06.341Z,101029.75
2023-04-28T04:29:34.326Z,101033.41
2023-04-28T04:32:02.236Z,101040.66
2023-04-28T04:34:31.980Z,101035.94
2023-04-28T04:36:59.943Z,101037.13
2023-04-28T04:39:27.865Z,101018.34
2023-04-28T04:41:57.773Z,101049.81
2023-04-28T04:44:27.752Z,101024.16
2023-04-28T04:46:56.329Z,101017.53
2023-04-28T04:49:24.528Z,101037.03
2023-04-28T04:51:53.901Z,101033.72
2023-04-28T04:54:21.950Z,101053.50
2023-04-28T04:56:50.004Z,101045.91
2023-04-28T04:59:18.418Z,101051.97
2023-04-28T05:01:46.371Z,101056.53
2023-04-28T05:04:14.711Z,101046.69
2023-04-28T05:06:42.931Z,101060.66
2023-04-28T05:09:12.454Z,101065.66
2023-04-28T05:11:42.677Z,101057.88
2023-04-28T05:14:10.626Z,101060.56
2023-04-28T05:16:39.001Z,101073.34
2023-04-28T05:19:08.268Z,101074.59
2023-04-28T05:21:37.970Z,101041.78
2023-04-28T05:24:06.789Z,101073.72
2023-04-28T05:26:37.413Z,101077.19
2023-04-28T05:29:05.245Z,101071.22
2023-04-28T05:31:33.243Z,101072.19
2023-04-28T05:34:01.474Z,101072.47
2023-04-28T05:36:29.382Z,101080.25
2023-04-28T05:38:57.321Z,101075.13
2023-04-28T05:41:25.628Z,101075.31
2023-04-28T05:43:54.820Z,101084.16
2023-04-28T05:48:57.093Z,101090.88
2023-04-28T05:51:25.346Z,101089.38
2023-04-28T05:53:53.222Z,101089.44
2023-04-28T05:56:21.454Z,101092.31
2023-04-28T05:58:50.646Z,101088.28
2023-04-28T06:01:20.175Z,101084.97
2023-04-28T06:03:48.387Z,101088.91
2023-04-28T06:06:16.740Z,101067.72
2023-04-28T06:08:44.668Z,101045.63
2023-04-28T06:11:12.665Z,101097.13
2023-04-28T06:13:40.612Z,101083.88
2023-04-28T06:16:08.848Z,101095.47
2023-04-28T06:18:38.358Z,101106.03
2023-04-28T06:21:06.267Z,101089.75
2023-04-28T06:23:34.118Z,101098.34
2023-04-28T06:26:02.179Z,101066.00
2023-04-28T06:28:30.158Z,101104.69
2023-04-28T06:30:59.896Z,101110.03
2023-04-28T06:33:27.998Z,101133.88
2023-04-28T06:35:57.381Z,101126.75
2023-04-28T06:38:25.271Z,101116.16
2023-04-28T06:40:55.215Z,101125.09
2023-04-28T06:43:23.182Z,101119.56
2023-04-28T06:45:51.022Z,101134.63
2023-04-28T06:48:19.179Z,101109.13
2023-04-28T06:50:47.102Z,101116.53
2023-04-28T06:53:16.712Z,101140.88
2023-04-28T06:55:44.798Z,101111.72
2023-04-28T06:58:12.818Z,101153.94
2023-04-28T07:00:40.685Z,101153.38
2023-04-28T07:03:09.337Z,101150.25
2023-04-28T07:05:37.646Z,101139.34
2023-04-28T07:08:06.074Z,101155.38
2023-04-28T07:10:35.459Z,101151.84
2023-04-28T07:13:03.402Z,101156.22
2023-04-28T07:15:31.494Z,101153.56
2023-04-28T07:17:59.666Z,101154.41
2023-04-28T07:20:27.906Z,101164.72
2023-04-28T07:22:55.745Z,101159.19
2023-04-28T07:25:23.721Z,101159.06
2023-04-28T07:27:54.373Z,101156.16
2023-04-28T07:30:27.979Z,101160.06
2023-04-28T07:32:56.773Z,101169.69
2023-04-28T07:35:24.708Z,101170.16
2023-04-28T07:37:53.067Z,101175.59
2023-04-28T07:40:21.297Z,101173.56
2023-04-28T07:42:49.207Z,101176.16
2023-04-28T07:45:18.594Z,101178.84
2023-04-28T07:47:46.690Z,101169.16
2023-04-28T07:50:14.558Z,101185.59
2023-04-28T07:52:42.496Z,101180.47
2023-04-28T07:55:11.172Z,101192.44
2023-04-28T07:57:39.283Z,101172.44
2023-04-28T08:00:08.580Z,101198.78
2023-04-28T08:02:38.121Z,101199.59
2023-04-28T08:05:07.561Z,101188.44
2023-04-28T08:07:35.681Z,101205.47
2023-04-28T08:10:03.839Z,101210.50
2023-04-28T08:12:32.711Z,101210.41
2023-04-28T08:15:00.679Z,101212.16
2023-04-28T08:17:28.803Z,101195.06
2023-04-28T08:19:58.681Z,101208.22
2023-04-28T08:22:26.518Z,101217.31
2023-04-28T08:24:54.645Z,101227.72
2023-04-28T08:27:23.855Z,101219.56
2023-04-28T08:29:51.838Z,101216.28
2023-04-28T08:32:19.905Z,101230.34
2023-04-28T08:34:47.730Z,101208.00
2023-04-28T08:37:17.022Z,101214.72
2023-04-28T08:39:45.169Z,101227.72
2023-04-28T08:42:13.784Z,101172.94
2023-04-28T08:44:41.780Z,101228.16
2023-04-28T08:47:14.081Z,101226.28
2023-04-28T08:49:42.787Z,101215.31
2023-04-28T08:52:13.483Z,101226.41
2023-04-28T08:54:43.858Z,101224.75
2023-04-28T08:57:12.170Z,101231.91
2023-04-28T08:59:41.382Z,101227.56
2023-04-28T09:02:10.579Z,101237.59
2023-04-28T09:04:39.308Z,101171.66
2023-04-28T09:07:12.496Z,101237.84
2023-04-28T09:09:42.374Z,101228.81
2023-04-28T09:12:10.282Z,101231.06
2023-04-28T09:14:40.219Z,101233.66
2023-04-28T09:17:12.676Z,101229.97
2023-04-28T09:19:43.155Z,101227.00
2023-04-28T09:22:25.439Z,101124.88
2023-04-28T09:24:56.451Z,101223.94
2023-04-28T09:27:28.881Z,101222.66
2023-04-28T09:29:57.096Z,101228.34
2023-04-28T09:32:27.981Z,101209.53
2023-04-28T09:34:57.689Z,101219.59
2023-04-28T09:37:27.306Z,101222.84
2023-04-28T09:39:56.820Z,101205.06
2023-04-28T09:42:35.220Z,101212.16
2023-04-28T09:45:04.632Z,101222.06
2023-04-28T09:47:34.939Z,101220.38
2023-04-28T09:50:04.997Z,101198.38
2023-04-28T09:52:35.506Z,101219.22
2023-04-28T09:55:06.450Z,101222.06
2023-04-28T09:57:36.708Z,101224.69
2023-04-28T10:00:07.755Z,101210.38
2023-04-28T10:05:10.225Z,101226.94
2023-04-28T10:07:40.269Z,101226.69
2023-04-28T10:10:10.396Z,101223.38
2023-04-28T10:12:39.223Z,101234.91
2023-04-28T10:15:10.686Z,101094.69
2023-04-28T10:17:40.823Z,101220.63
2023-04-28T10:20:10.013Z,101215.38
2023-04-28T10:22:56.011Z,101215.91
2023-04-28T10:25:31.216Z,101219.56
2023-04-28T10:28:00.681Z,101206.56
2023-04-28T10:30:30.368Z,101199.69
2023-04-28T10:33:24.714Z,101206.94
2023-04-28T10:35:52.904Z,101189.50
2023-04-28T10:38:22.660Z,101198.84
2023-04-28T10:40:54.028Z,101193.31
2023-04-28T10:43:37.721Z,101099.47
2023-04-28T10:46:08.254Z,101205.34
2023-04-28T10:48:59.718Z,101196.84
2023-04-28T10:51:32.096Z,101131.00
2023-04-28T10:54:19.877Z,101192.63
2023-04-28T10:57:23.048Z,101016.44
2023-04-28T10:59:51.575Z,101180.22
2023-04-28T11:02:50.130Z,101195.88
2023-04-28T11:05:20.185Z,101187.75
2023-04-28T11:08:36.949Z,101192.66
2023-04-28T11:11:21.860Z,101203.03
2023-04-28T11:13:51.979Z,101192.72
2023-04-28T11:16:23.276Z,101185.53
2023-04-28T11:19:03.709Z,101183.72
2023-04-28T11:21:32.724Z,101198.06
2023-04-28T11:24:00.857Z,101135.28
2023-04-28T11:26:30.157Z,101209.03
2023-04-28T11:28:59.719Z,101207.03
2023-04-28T11:31:30.525Z,101169.09
2023-04-28T11:34:05.152Z,101199.91
2023-04-28T11:36:35.989Z,101200.41
2023-04-28T11:39:07.594Z,101206.38
2023-04-28T11:41:36.194Z,101204.97
2023-04-28T11:44:13.616Z,101202.88
2023-04-28T11:46:50.714Z,101190.00
2023-04-28T11:49:19.978Z,101196.63
2023-04-28T11:51:50.236Z,101200.16
2023-04-28T11:54:22.589Z,101143.81
2023-04-28T11:56:50.985Z,101159.19
2023-04-28T12:01:59.564Z,101204.59
2023-04-28T12:04:33.037Z,101210.91
2023-04-28T12:07:06.125Z,101065.97
2023-04-28T12:09:35.382Z,101212.59
2023-04-28T12:12:05.109Z,101218.59
2023-04-28T12:14:54.404Z,101127.81
2023-04-28T12:17:26.637Z,101213.53
2023-04-28T12:19:54.721Z,101210.94
2023-04-28T12:22:22.900Z,101203.44
2023-04-28T12:25:04.832Z,101209.09
2023-04-28T12:27:33.238Z,101204.53
2023-04-28T12:30:02.456Z,101212.47
2023-04-28T12:32:40.964Z,101146.00
2023-04-28T12:35:09.914Z,101179.06
2023-04-28T12:37:38.842Z,101222.28
2023-04-28T12:40:07.833Z,101145.69
2023-04-28T12:42:36.130Z,101196.97
2023-04-28T12:45:07.035Z,101190.16
2023-04-28T12:47:35.252Z,101106.22
2023-04-28T12:50:03.379Z,101197.91
2023-04-28T12:52:33.798Z,101206.09
2023-04-28T12:55:01.827Z,101172.03
2023-04-28T12:57:30.550Z,101182.97
2023-04-28T12:59:58.430Z,101187.03
2023-04-28T13:02:29.650Z,101195.81
2023-04-28T13:04:57.649Z,101144.25
2023-04-28T13:07:25.638Z,101183.19
2023-04-28T13:09:53.766Z,101150.81
2023-04-28T13:12:21.604Z,101182.63
2023-04-28T13:14:49.445Z,101166.47
2023-04-28T13:17:17.711Z,101178.09
2023-04-28T13:19:47.542Z,101166.41
2023-04-28T13:22:16.192Z,101162.88
2023-04-28T13:24:44.873Z,101179.84
2023-04-28T13:27:12.899Z,101179.91
2023-04-28T13:29:41.357Z,101157.69
2023-04-28T13:32:09.657Z,101176.00
2023-04-28T13:34:38.335Z,101173.75
2023-04-28T13:37:07.574Z,101176.31
2023-04-28T13:39:35.805Z,101181.53
2023-04-28T13:42:04.130Z,101156.88
2023-04-28T13:44:32.042Z,101187.00
2023-04-28T13:47:00.204Z,101164.81
2023-04-28T13:49:28.197Z,101189.22
2023-04-28T13:51:56.537Z,101187.09
2023-04-28T13:54:25.919Z,101205.91
2023-04-28T13:56:53.792Z,101198.28
2023-04-28T13:59:21.806Z,101204.06
2023-04-28T14:01:50.278Z,101195.66
2023-04-28T14:04:18.555Z,101251.31
2023-04-28T14:06:46.671Z,101209.59
2023-04-28T14:09:14.893Z,101236.69
2023-04-28T14:11:44.664Z,101245.84
2023-04-28T14:14:12.655Z,101256.91
2023-04-28T14:16:40.902Z,101259.34
2023-04-28T14:19:09.268Z,101251.81
2023-04-28T14:21:38.169Z,101272.41
2023-04-28T14:24:06.857Z,101245.72
2023-04-28T14:26:34.800Z,101241.53
2023-04-28T14:29:05.736Z,101251.06
2023-04-28T14:31:34.207Z,101253.78
2023-04-28T14:34:03.969Z,101251.03
2023-04-28T14:36:33.072Z,101225.50
2023-04-28T14:39:01.549Z,101247.31
2023-04-28T14:41:29.422Z,101244.94
2023-04-28T14:43:57.854Z,101247.00
2023-04-28T14:46:27.812Z,101229.44
2023-04-28T14:48:55.719Z,101253.22
2023-04-28T14:51:23.629Z,101263.00
2023-04-28T14:53:51.619Z,101242.75
2023-04-28T14:56:20.522Z,101234.47
2023-04-28T14:58:48.585Z,101249.38
2023-04-28T15:01:17.692Z,101238.13
2023-04-28T15:03:47.404Z,101230.38
2023-04-28T15:06:15.396Z,101248.75
2023-04-28T15:08:43.536Z,101230.31
2023-04-28T15:11:11.851Z,101204.81
2023-04-28T15:13:41.661Z,101252.16
2023-04-28T15:16:11.350Z,101254.97
2023-04-28T15:18:39.584Z,101233.97
2023-04-28T15:21:09.515Z,101107.44
2023-04-28T15:23:37.998Z,101228.22
2023-04-28T15:26:06.716Z,101256.94
2023-04-28T15:28:34.646Z,101131.91
2023-04-28T15:31:02.890Z,101251.94
2023-04-28T15:33:30.847Z,101255.97
2023-04-28T15:35:58.814Z,101240.13
2023-04-28T15:38:31.409Z,101249.94
2023-04-28T15:40:59.297Z,101229.56
2023-04-28T15:43:27.250Z,101256.13
2023-04-28T15:45:55.418Z,101243.72
2023-04-28T15:48:23.954Z,101200.34
2023-04-28T15:50:51.942Z,101258.63
2023-04-28T15:53:20.035Z,101257.28
2023-04-28T15:55:49.564Z,101267.22
2023-04-28T15:58:17.500Z,101271.81
2023-04-28T16:00:47.149Z,101259.88
2023-04-28T16:03:15.281Z,101222.63
2023-04-28T16:05:43.350Z,101256.69
2023-04-28T16:08:11.730Z,101260.09
2023-04-28T16:10:41.296Z,101261.72
2023-04-28T16:13:12.341Z,101259.03
2023-04-28T16:15:41.864Z,101268.34
2023-04-28T16:18:10.089Z,101274.50
2023-04-28T16:20:38.057Z,101275.22
2023-04-28T16:23:06.663Z,101271.88
2023-04-28T16:25:35.410Z,101258.06
2023-04-28T16:28:03.299Z,101262.16
2023-04-28T16:30:32.770Z,101276.09
2023-04-28T16:33:00.919Z,101254.84
2023-04-28T16:35:28.813Z,101259.16
2023-04-28T16:37:57.130Z,101239.28
2023-04-28T16:40:25.164Z,101276.72
2023-04-28T16:42:53.452Z,101274.00
2023-04-28T16:45:21.286Z,101275.84
2023-04-28T16:47:50.710Z,101270.22
2023-04-28T16:50:18.802Z,101255.75
2023-04-28T16:52:46.774Z,101252.69
2023-04-28T16:55:14.804Z,101263.97
2023-04-28T16:57:42.993Z,101283.31
2023-04-28T17:00:12.015Z,101273.50
2023-04-28T17:02:40.000Z,101261.97
2023-04-28T17:05:10.820Z,101270.81
2023-04-28T17:07:38.787Z,101271.41
2023-04-28T17:10:08.268Z,101277.56
2023-04-28T17:12:36.288Z,101255.38
2023-04-28T17:15:04.345Z,101269.50
2023-04-28T17:17:33.606Z,101284.06
2023-04-28T17:20:02.456Z,101279.00
2023-04-28T17:22:33.007Z,101265.50
2023-04-28T17:25:00.963Z,101283.56
2023-04-28T17:27:28.909Z,101279.66
2023-04-28T17:29:57.176Z,101285.59
2023-04-28T17:32:25.060Z,101272.84
2023-04-28T17:34:53.138Z,101287.13
2023-04-28T17:37:21.121Z,101301.06
2023-04-28T17:39:52.240Z,101272.59
2023-04-28T17:42:20.377Z,101295.69
2023-04-28T17:44:48.495Z,101298.38
2023-04-28T17:47:17.504Z,101303.78
2023-04-28T17:49:45.662Z,101301.97
2023-04-28T17:52:15.446Z,101310.25
2023-04-28T17:54:43.854Z,101304.25
2023-04-28T17:57:14.473Z,101304.41
2023-04-28T17:59:42.725Z,101310.84
2023-04-28T18:02:11.186Z,101305.13
2023-04-28T18:04:39.725Z,101261.59
2023-04-28T18:07:07.955Z,101284.13
2023-04-28T18:09:35.787Z,101315.72
2023-04-28T18:12:04.591Z,101319.69
2023-04-28T18:14:33.975Z,101312.16
2023-04-28T18:17:01.955Z,101308.31
2023-04-28T18:19:31.664Z,101311.38
2023-04-28T18:22:00.204Z,101314.50
2023-04-28T18:24:28.232Z,101312.25
2023-04-28T18:26:56.104Z,101273.06
2023-04-28T18:29:24.069Z,101325.22
2023-04-28T18:31:53.393Z,101316.84
2023-04-28T18:34:21.415Z,101321.66
2023-04-28T18:36:49.995Z,101299.88
2023-04-28T18:39:18.271Z,101318.28
2023-04-28T18:41:46.181Z,101319.72
2023-04-28T18:44:14.096Z,101315.66
2023-04-28T18:46:42.039Z,101304.53
2023-04-28T18:49:11.342Z,101316.00
2023-04-28T18:51:39.622Z,101307.38
2023-04-28T18:54:07.610Z,101320.66
2023-04-28T18:56:36.128Z,101268.06
2023-04-28T18:59:05.944Z,101312.63
2023-04-28T19:01:34.002Z,101327.44
2023-04-28T19:04:03.204Z,101329.53
2023-04-28T19:06:32.730Z,101312.09
2023-04-28T19:09:01.540Z,101337.72
2023-04-28T19:11:30.522Z,101327.97
2023-04-28T19:13:59.042Z,101302.78
2023-04-28T19:16:27.199Z,101301.66
2023-04-28T19:18:55.092Z,101327.34
2023-04-28T19:21:23.552Z,101329.66
2023-04-28T19:23:53.387Z,101331.97
2023-04-28T19:26:21.415Z,101335.22
2023-04-28T19:28:49.289Z,101168.59
2023-04-28T19:31:17.326Z,101328.19
2023-04-28T19:33:46.026Z,101341.28
2023-04-28T19:36:13.979Z,101340.25
2023-04-28T19:38:42.067Z,101339.91
2023-04-28T19:41:11.379Z,101334.38
2023-04-28T19:43:39.326Z,101336.75
2023-04-28T19:46:08.194Z,101318.84
2023-04-28T19:48:36.194Z,101326.75
2023-04-28T19:51:04.016Z,101337.09
2023-04-28T19:53:32.245Z,101277.22
2023-04-28T19:56:02.105Z,101327.97
2023-04-28T19:58:31.702Z,101300.16
2023-04-28T20:01:00.560Z,101329.28
2023-04-28T20:03:30.103Z,101322.13
2023-04-28T20:05:58.090Z,101309.66
2023-04-28T20:08:27.578Z,101319.50
2023-04-28T20:10:55.723Z,101331.72
2023-04-28T20:13:24.731Z,101336.69
2023-04-28T20:15:54.986Z,101336.44
2023-04-28T20:18:22.938Z,101327.41
2023-04-28T20:20:53.564Z,101334.31
2023-04-28T20:23:21.705Z,101330.66
2023-04-28T20:25:50.047Z,101338.13
2023-04-28T20:28:17.866Z,101335.16
2023-04-28T20:30:46.057Z,101324.41
2023-04-28T20:33:16.250Z,101314.41
2023-04-28T20:35:44.396Z,101324.00
2023-04-28T20:38:12.560Z,101337.16
2023-04-28T20:40:41.037Z,101334.16
2023-04-28T20:43:08.876Z,101336.41
2023-04-28T20:45:36.934Z,101335.50
2023-04-28T20:48:05.082Z,101344.84
2023-04-28T20:50:39.065Z,101337.78
2023-04-28T20:53:09.498Z,101340.19
2023-04-28T20:55:37.348Z,101346.13
2023-04-28T20:58:05.202Z,101340.75
2023-04-28T21:00:33.956Z,101338.06
2023-04-28T21:03:04.727Z,101340.59
2023-04-28T21:05:34.955Z,101330.81
2023-04-28T21:08:02.857Z,101317.22
2023-04-28T21:10:32.026Z,101317.22
2023-04-28T21:13:00.112Z,101335.75
2023-04-28T21:15:28.693Z,101334.69
2023-04-28T21:17:56.811Z,101333.63
2023-04-28T21:20:25.139Z,101329.84
2023-04-28T21:22:54.551Z,101330.53
2023-04-28T21:25:22.375Z,101329.53
2023-04-28T21:27:50.659Z,101344.53
2023-04-28T21:30:19.730Z,101332.41
2023-04-28T21:32:47.656Z,101314.31
2023-04-28T21:35:16.308Z,101306.25
2023-04-28T21:37:44.248Z,101332.97
2023-04-28T21:40:14.052Z,101329.47
2023-04-28T21:42:42.050Z,101330.28
2023-04-28T21:45:10.979Z,101308.78
2023-04-28T21:47:41.468Z,101328.31
2023-04-28T21:50:11.747Z,101325.63
2023-04-28T21:52:39.617Z,101322.03
2023-04-28T21:55:08.400Z,101301.25
2023-04-28T21:57:37.932Z,101330.53
2023-04-28T22:00:10.623Z,101325.16
2023-04-28T22:02:39.907Z,101325.00
2023-04-28T22:05:08.380Z,101324.09
2023-04-28T22:07:36.832Z,101277.44
2023-04-28T22:10:05.296Z,101324.00
2023-04-28T22:12:33.140Z,101306.09
2023-04-28T22:15:02.395Z,101324.72
2023-04-28T22:17:30.442Z,101319.25
2023-04-28T22:19:58.272Z,101322.38
2023-04-28T22:22:26.092Z,101322.28
2023-04-28T22:24:54.253Z,101318.00
2023-04-28T22:27:22.108Z,101318.81
2023-04-28T22:29:50.198Z,101270.34
2023-04-28T22:32:19.812Z,101321.31
2023-04-28T22:34:48.221Z,101317.72
2023-04-28T22:37:16.040Z,101318.34
2023-04-28T22:39:44.680Z,101317.38
2023-04-28T22:42:12.510Z,101321.47
2023-04-28T22:44:40.668Z,101310.09
2023-04-28T22:47:09.009Z,101297.38
2023-04-28T22:49:38.243Z,101306.88
2023-04-28T22:52:07.568Z,101312.25
2023-04-28T22:54:36.936Z,101293.44
2023-04-28T22:57:04.967Z,101314.66
2023-04-28T22:59:34.133Z,101304.38
2023-04-28T23:02:02.545Z,101302.28
2023-04-28T23:04:30.912Z,101298.72
2023-04-28T23:07:00.416Z,101282.22
2023-04-28T23:09:28.428Z,101313.38
2023-04-28T23:11:56.673Z,101280.25
2023-04-28T23:14:24.497Z,101309.72
2023-04-28T23:16:52.583Z,101288.41
2023-04-28T23:19:20.857Z,101296.72
2023-04-28T23:21:48.882Z,101285.97
2023-04-28T23:24:18.477Z,101299.16
2023-04-28T23:26:46.576Z,101284.72
2023-04-28T23:29:14.453Z,101291.19
2023-04-28T23:31:42.595Z,101284.44
2023-04-28T23:34:10.496Z,101278.88
2023-04-28T23:36:38.602Z,101292.84
2023-04-28T23:39:06.680Z,101291.66
2023-04-28T23:41:35.921Z,101288.16
2023-04-28T23:44:03.827Z,101287.09
2023-04-28T23:46:32.127Z,101258.41
2023-04-28T23:48:59.960Z,101276.06
2023-04-28T23:51:27.830Z,101263.59
2023-04-28T23:53:56.144Z,101273.88
2023-04-28T23:56:24.178Z,101272.00
2023-04-28T23:58:54.532Z,101262.22
